Krisjanis Valdemars — V7LI9 — position and weather

sailwx.info

Track history (hours):
 
Tides and Currents Weather Stations Pressure Air Temp Water Temp Dewpoint Dewpoint Depression Visibility Wind Speed Wind Dir Waves Ship Positions

Krisjanis Valdemars

Last reported at 2015-Jul-23 08:33 UTC. Time now 2015-Jul-31 15:26 UTC.
Position N 27°16' W 015°24'.
Warning: this ship's position is 8 days out of date.

Length 183 m; draft 9.6 m.

Type: Tanker. MMSI: 538002757.

Date/timePositionNaut miles runAvg speedWind from/ knotsBaromVisibWave heightAir tempDewpointWater temp
2015-Jul-23 08:33N 27°16' W 015°24'1613.4
2015-Jul-23 07:21N 27°31' W 015°17'1113.8
2015-Jul-23 06:33N 27°41' W 015°12'1414.1
2015-Jul-23 05:34N 27°54' W 015°06'1413.7
2015-Jul-23 04:33N 28°07' W 015°01'1313.4
2015-Jul-23 03:33N 28°20' W 014°56'1414.0
2015-Jul-23 02:33N 28°33' W 014°51'1313.5
2015-Jul-23 01:33N 28°46' W 014°47'1313.5
2015-Jul-23 00:33N 28°59' W 014°44'1413.7
2015-Jul-22 23:33N 29°13' W 014°40'1413.5
2015-Jul-22 22:33N 29°26' W 014°36'1313.3
2015-Jul-22 21:33N 29°39' W 014°33'1313.4
2015-Jul-22 20:33N 29°52' W 014°29'1313.3
2015-Jul-22 19:33N 30°05' W 014°26'1313.5
2015-Jul-22 18:33N 30°18' W 014°22'1413.4
2015-Jul-22 17:32N 30°31' W 014°19'1313.1
2015-Jul-22 16:33N 30°43' W 014°15'1313.1
2015-Jul-22 15:33N 30°56' W 014°12'1313.1
2015-Jul-22 14:33N 31°09' W 014°08'4413.3
2015-Jul-22 11:15N 31°52' W 013°56'1013.1
2015-Jul-22 10:29N 32°02' W 013°53'1713.3
2015-Jul-22 09:13N 32°18' W 013°49'913.6
2015-Jul-22 08:33N 32°27' W 013°46'  
2015-Jul-18 16:28N 49°53' W 003°15'1814.9
2015-Jul-18 15:16N 50°00' W 002°49'1216.0
2015-Jul-18 14:32N 50°04' W 002°32'1915.5
2015-Jul-18 13:17N 50°09' W 002°03'2313.2
2015-Jul-18 11:32N 50°15' W 001°28'1211.1
2015-Jul-18 10:29N 50°19' W 001°11'9 9.8
2015-Jul-18 09:32N 50°21' W 000°56'3812.1
2015-Jul-18 06:22N 50°31' E 000°01'1214.5
2015-Jul-18 05:34N 50°34' E 000°19'1414.2
2015-Jul-18 04:33N 50°40' E 000°40'1413.6
2015-Jul-18 03:33N 50°48' E 000°57'1312.6
2015-Jul-18 02:33N 50°56' E 001°12'1111.1
2015-Jul-18 01:33N 51°03' E 001°26'10 9.9
2015-Jul-18 00:33N 51°09' E 001°38'1110.8
2015-Jul-17 23:33N 51°18' E 001°49'1313.5
2015-Jul-17 22:33N 51°29' E 002°01'1714.6
2015-Jul-17 21:22N 51°42' E 002°19'1914.3
2015-Jul-17 20:04N 51°56' E 002°39'713.5
2015-Jul-17 19:33N 52°01' E 002°48'1312.7
2015-Jul-17 18:33N 52°03' E 003°08'1412.6
2015-Jul-17 17:25N 52°03' E 003°31'1112.1
2015-Jul-17 16:33N 52°03' E 003°48'10 9.8
2015-Jul-17 15:33N 51°60' E 004°03'9 9.1
2015-Jul-17 14:33N 51°55' E 004°15'2 1.5
2015-Jul-17 13:17N 51°53' E 004°17'0 0.0
2015-Jul-17 12:32N 51°53' E 004°17'0 0.0
2015-Jul-17 11:32N 51°53' E 004°17'0 0.0
2015-Jul-17 09:29N 51°53' E 004°17'0 0.0
2015-Jul-17 08:32N 51°53' E 004°17'0 0.0
2015-Jul-17 07:32N 51°53' E 004°17'0 0.0
2015-Jul-17 04:26N 51°53' E 004°17'0 0.0
2015-Jul-17 03:17N 51°53' E 004°17'0 0.0
2015-Jul-17 02:08N 51°53' E 004°17'0 0.0
2015-Jul-17 01:11N 51°53' E 004°17'0 0.0
2015-Jul-17 00:05N 51°53' E 004°17'0 0.0
2015-Jul-16 23:17N 51°53' E 004°17'0 0.0
2015-Jul-16 21:29N 51°53' E 004°17'0 0.0
2015-Jul-16 17:17N 51°53' E 004°17'0 0.0
2015-Jul-16 16:26N 51°53' E 004°17'0 0.0
2015-Jul-16 14:11N 51°53' E 004°17'0 0.0
2015-Jul-16 11:23N 51°53' E 004°17'0 0.0
2015-Jul-16 10:23N 51°53' E 004°17'0 0.0
2015-Jul-16 09:17N 51°53' E 004°17'0 0.0
2015-Jul-16 08:29N 51°53' E 004°17'0 0.0
2015-Jul-16 07:29N 51°53' E 004°17'0 0.0
2015-Jul-16 06:17N 51°53' E 004°17'0 0.0
2015-Jul-16 03:29N 51°53' E 004°17'0 0.0
2015-Jul-16 02:29N 51°53' E 004°17'0 0.0
2015-Jul-16 01:23N 51°53' E 004°17'0 0.1
2015-Jul-16 00:34N 51°53' E 004°17'3 3.0
2015-Jul-15 23:34N 51°55' E 004°14'8 8.3
2015-Jul-15 22:33N 51°59' E 004°02'10 9.7
2015-Jul-15 21:33N 51°60' E 003°46'9 8.9
2015-Jul-15 20:33N 52°08' E 003°41'1 1.4
2015-Jul-15 19:31N 52°10' E 003°40'0 0.1
2015-Jul-15 18:31N 52°10' E 003°40'0 0.1
2015-Jul-15 17:31N 52°10' E 003°40'0 0.0
2015-Jul-15 10:07N 52°10' E 003°40'0 0.1
2015-Jul-15 09:25N 52°10' E 003°40'0 0.0
2015-Jul-15 08:31N 52°10' E 003°40'0 0.0
2015-Jul-15 07:28N 52°10' E 003°40'0 0.2
2015-Jul-15 06:28N 52°10' E 003°40'0 0.1
2015-Jul-15 05:07N 52°10' E 003°40'0 0.0
2015-Jul-15 03:10N 52°10' E 003°40'0 0.0
2015-Jul-15 02:28N 52°10' E 003°40'0 0.0
2015-Jul-15 01:28N 52°10' E 003°40'0 0.1
2015-Jul-14 22:28N 52°10' E 003°40'0 0.0
2015-Jul-14 21:31N 52°10' E 003°40'0 0.0
2015-Jul-14 20:31N 52°10' E 003°40'0 0.0
2015-Jul-14 18:07N 52°10' E 003°40'0 0.1
2015-Jul-14 15:28N 52°10' E 003°40'0 0.0
2015-Jul-14 13:25N 52°10' E 003°40'0 0.0
2015-Jul-14 09:28N 52°10' E 003°40'0 0.0
2015-Jul-14 08:28N 52°10' E 003°40'0 0.0
2015-Jul-14 07:31N 52°10' E 003°40'0 0.1
2015-Jul-14 06:28N 52°10' E 003°40'0 0.0
2015-Jul-14 03:10N 52°10' E 003°40'  
Track history (hours):
 
Tides and Currents Weather Stations Pressure Air Temp Water Temp Dewpoint Dewpoint Depression Visibility Wind Speed Wind Dir Waves Ship Positions

Krisjanis Valdemars

Last reported at 2015-Jul-23 08:33 UTC. Time now 2015-Jul-31 15:26 UTC.
Position N 27°16' W 015°24'.
Warning: this ship's position is 8 days out of date.

Length 183 m; draft 9.6 m.

Type: Tanker. MMSI: 538002757.

Date/timePositionNaut miles runAvg speedWind from/ knotsBaromVisibWave heightAir tempDewpointWater temp
2015-Jul-23 08:33N 27°16' W 015°24'1613.4
2015-Jul-23 07:21N 27°31' W 015°17'1113.8
2015-Jul-23 06:33N 27°41' W 015°12'1414.1
2015-Jul-23 05:34N 27°54' W 015°06'1413.7
2015-Jul-23 04:33N 28°07' W 015°01'1313.4
2015-Jul-23 03:33N 28°20' W 014°56'1414.0
2015-Jul-23 02:33N 28°33' W 014°51'1313.5
2015-Jul-23 01:33N 28°46' W 014°47'1313.5
2015-Jul-23 00:33N 28°59' W 014°44'1413.7
2015-Jul-22 23:33N 29°13' W 014°40'1413.5
2015-Jul-22 22:33N 29°26' W 014°36'1313.3
2015-Jul-22 21:33N 29°39' W 014°33'1313.4
2015-Jul-22 20:33N 29°52' W 014°29'1313.3
2015-Jul-22 19:33N 30°05' W 014°26'1313.5
2015-Jul-22 18:33N 30°18' W 014°22'1413.4
2015-Jul-22 17:32N 30°31' W 014°19'1313.1
2015-Jul-22 16:33N 30°43' W 014°15'1313.1
2015-Jul-22 15:33N 30°56' W 014°12'1313.1
2015-Jul-22 14:33N 31°09' W 014°08'4413.3
2015-Jul-22 11:15N 31°52' W 013°56'1013.1
2015-Jul-22 10:29N 32°02' W 013°53'1713.3
2015-Jul-22 09:13N 32°18' W 013°49'913.6
2015-Jul-22 08:33N 32°27' W 013°46'  
2015-Jul-18 16:28N 49°53' W 003°15'1814.9
2015-Jul-18 15:16N 50°00' W 002°49'1216.0
2015-Jul-18 14:32N 50°04' W 002°32'1915.5
2015-Jul-18 13:17N 50°09' W 002°03'2313.2
2015-Jul-18 11:32N 50°15' W 001°28'1211.1
2015-Jul-18 10:29N 50°19' W 001°11'9 9.8
2015-Jul-18 09:32N 50°21' W 000°56'3812.1
2015-Jul-18 06:22N 50°31' E 000°01'1214.5
2015-Jul-18 05:34N 50°34' E 000°19'1414.2
2015-Jul-18 04:33N 50°40' E 000°40'1413.6
2015-Jul-18 03:33N 50°48' E 000°57'1312.6
2015-Jul-18 02:33N 50°56' E 001°12'1111.1
2015-Jul-18 01:33N 51°03' E 001°26'10 9.9
2015-Jul-18 00:33N 51°09' E 001°38'1110.8
2015-Jul-17 23:33N 51°18' E 001°49'1313.5
2015-Jul-17 22:33N 51°29' E 002°01'1714.6
2015-Jul-17 21:22N 51°42' E 002°19'1914.3
2015-Jul-17 20:04N 51°56' E 002°39'713.5
2015-Jul-17 19:33N 52°01' E 002°48'1312.7
2015-Jul-17 18:33N 52°03' E 003°08'1412.6
2015-Jul-17 17:25N 52°03' E 003°31'1112.1
2015-Jul-17 16:33N 52°03' E 003°48'10 9.8
2015-Jul-17 15:33N 51°60' E 004°03'9 9.1
2015-Jul-17 14:33N 51°55' E 004°15'2 1.5
2015-Jul-17 13:17N 51°53' E 004°17'0 0.0
2015-Jul-17 12:32N 51°53' E 004°17'0 0.0
2015-Jul-17 11:32N 51°53' E 004°17'0 0.0
2015-Jul-17 09:29N 51°53' E 004°17'0 0.0
2015-Jul-17 08:32N 51°53' E 004°17'0 0.0
2015-Jul-17 07:32N 51°53' E 004°17'0 0.0
2015-Jul-17 04:26N 51°53' E 004°17'0 0.0
2015-Jul-17 03:17N 51°53' E 004°17'0 0.0
2015-Jul-17 02:08N 51°53' E 004°17'0 0.0
2015-Jul-17 01:11N 51°53' E 004°17'0 0.0
2015-Jul-17 00:05N 51°53' E 004°17'0 0.0
2015-Jul-16 23:17N 51°53' E 004°17'0 0.0
2015-Jul-16 21:29N 51°53' E 004°17'0 0.0
2015-Jul-16 17:17N 51°53' E 004°17'0 0.0
2015-Jul-16 16:26N 51°53' E 004°17'0 0.0
2015-Jul-16 14:11N 51°53' E 004°17'0 0.0
2015-Jul-16 11:23N 51°53' E 004°17'0 0.0
2015-Jul-16 10:23N 51°53' E 004°17'0 0.0
2015-Jul-16 09:17N 51°53' E 004°17'0 0.0
2015-Jul-16 08:29N 51°53' E 004°17'0 0.0
2015-Jul-16 07:29N 51°53' E 004°17'0 0.0
2015-Jul-16 06:17N 51°53' E 004°17'0 0.0
2015-Jul-16 03:29N 51°53' E 004°17'0 0.0
2015-Jul-16 02:29N 51°53' E 004°17'0 0.0
2015-Jul-16 01:23N 51°53' E 004°17'0 0.1
2015-Jul-16 00:34N 51°53' E 004°17'3 3.0
2015-Jul-15 23:34N 51°55' E 004°14'8 8.3
2015-Jul-15 22:33N 51°59' E 004°02'10 9.7
2015-Jul-15 21:33N 51°60' E 003°46'9 8.9
2015-Jul-15 20:33N 52°08' E 003°41'1 1.4
2015-Jul-15 19:31N 52°10' E 003°40'0 0.1
2015-Jul-15 18:31N 52°10' E 003°40'0 0.1
2015-Jul-15 17:31N 52°10' E 003°40'0 0.0
2015-Jul-15 10:07N 52°10' E 003°40'0 0.1
2015-Jul-15 09:25N 52°10' E 003°40'0 0.0
2015-Jul-15 08:31N 52°10' E 003°40'0 0.0
2015-Jul-15 07:28N 52°10' E 003°40'0 0.2
2015-Jul-15 06:28N 52°10' E 003°40'0 0.1
2015-Jul-15 05:07N 52°10' E 003°40'0 0.0
2015-Jul-15 03:10N 52°10' E 003°40'0 0.0
2015-Jul-15 02:28N 52°10' E 003°40'0 0.0
2015-Jul-15 01:28N 52°10' E 003°40'0 0.1
2015-Jul-14 22:28N 52°10' E 003°40'0 0.0
2015-Jul-14 21:31N 52°10' E 003°40'0 0.0
2015-Jul-14 20:31N 52°10' E 003°40'0 0.0
2015-Jul-14 18:07N 52°10' E 003°40'0 0.1
2015-Jul-14 15:28N 52°10' E 003°40'0 0.0
2015-Jul-14 13:25N 52°10' E 003°40'0 0.0
2015-Jul-14 09:28N 52°10' E 003°40'0 0.0
2015-Jul-14 08:28N 52°10' E 003°40'0 0.0
2015-Jul-14 07:31N 52°10' E 003°40'0 0.1
2015-Jul-14 06:28N 52°10' E 003°40'0 0.0
2015-Jul-14 03:10N 52°10' E 003°40'  

Dump ship's entire track history